Aviation Digital Data Service (ADDS)

Output produced by METARs form (0102 UTC 28 August 2014)
found at http://aviationweather.gov/adds/metars/
 
KARA 280053Z 08005KT 10SM OVC100 26/23 A2997 RMK AO2 RAE16 SLP149 P0000 T02610233